sensor_id;sensor_type;location;lat;lon;timestamp;pressure;altitude;pressure_sealevel;temperature;humidity
64388;BME280;50709;52.648;4.764;2023-03-23T00:00:14;100043.44;;;14.93;70.11
64388;BME280;50709;52.648;4.764;2023-03-23T00:02:39;100034.63;;;14.94;69.51
64388;BME280;50709;52.648;4.764;2023-03-23T00:05:05;100020.09;;;14.82;71.09
64388;BME280;50709;52.648;4.764;2023-03-23T00:07:55;100046.28;;;15.15;69.49
64388;BME280;50709;52.648;4.764;2023-03-23T00:10:21;100043.09;;;15.34;69.68
64388;BME280;50709;52.648;4.764;2023-03-23T00:13:11;100016.56;;;15.11;69.62
64388;BME280;50709;52.648;4.764;2023-03-23T00:15:44;100031.59;;;15.08;69.72
64388;BME280;50709;52.648;4.764;2023-03-23T00:18:51;100021.31;;;15.00;69.59
64388;BME280;50709;52.648;4.764;2023-03-23T00:21:29;100024.97;;;15.24;68.90
64388;BME280;50709;52.648;4.764;2023-03-23T00:24:17;100010.84;;;14.99;69.68
64388;BME280;50709;52.648;4.764;2023-03-23T00:27:06;100016.19;;;15.25;69.28
64388;BME280;50709;52.648;4.764;2023-03-23T00:29:40;100022.09;;;15.04;68.95
64388;BME280;50709;52.648;4.764;2023-03-23T00:32:26;100020.97;;;15.11;68.99
64388;BME280;50709;52.648;4.764;2023-03-23T00:35:35;100017.81;;;15.00;69.57
64388;BME280;50709;52.648;4.764;2023-03-23T00:38:04;99997.09;;;15.19;69.09
64388;BME280;50709;52.648;4.764;2023-03-23T00:41:05;100004.97;;;15.19;67.91
64388;BME280;50709;52.648;4.764;2023-03-23T00:43:34;99992.69;;;15.19;68.11
64388;BME280;50709;52.648;4.764;2023-03-23T00:46:23;99997.16;;;15.16;66.94
64388;BME280;50709;52.648;4.764;2023-03-23T00:49:31;100000.47;;;15.22;68.49
64388;BME280;50709;52.648;4.764;2023-03-23T00:52:35;99988.03;;;14.99;68.09
64388;BME280;50709;52.648;4.764;2023-03-23T00:55:06;99989.06;;;14.93;68.04
64388;BME280;50709;52.648;4.764;2023-03-23T00:57:58;99988.91;;;14.98;67.97
64388;BME280;50709;52.648;4.764;2023-03-23T01:00:39;99981.44;;;15.42;67.46
64388;BME280;50709;52.648;4.764;2023-03-23T01:03:17;99974.16;;;15.24;67.90
64388;BME280;50709;52.648;4.764;2023-03-23T01:05:45;99938.13;;;14.68;67.99
64388;BME280;50709;52.648;4.764;2023-03-23T01:08:15;99969.44;;;15.05;67.79
64388;BME280;50709;52.648;4.764;2023-03-23T01:10:45;99960.47;;;14.83;68.52
64388;BME280;50709;52.648;4.764;2023-03-23T01:13:32;99964.38;;;15.27;67.58
64388;BME280;50709;52.648;4.764;2023-03-23T01:16:01;99965.81;;;15.09;67.84
64388;BME280;50709;52.648;4.764;2023-03-23T01:18:50;99982.81;;;14.97;67.47
64388;BME280;50709;52.648;4.764;2023-03-23T01:21:42;99967.66;;;15.06;66.90
64388;BME280;50709;52.648;4.764;2023-03-23T01:24:13;99978.41;;;14.98;67.63
64388;BME280;50709;52.648;4.764;2023-03-23T01:26:59;99960.25;;;15.47;67.05
64388;BME280;50709;52.648;4.764;2023-03-23T01:29:43;99968.38;;;15.39;66.82
64388;BME280;50709;52.648;4.764;2023-03-23T01:32:31;99961.97;;;15.48;66.08
64388;BME280;50709;52.648;4.764;2023-03-23T01:34:58;99955.94;;;15.44;66.93
64388;BME280;50709;52.648;4.764;2023-03-23T01:37:35;99967.88;;;15.55;65.86
64388;BME280;50709;52.648;4.764;2023-03-23T01:40:27;99949.97;;;15.39;66.58
64388;BME280;50709;52.648;4.764;2023-03-23T01:43:16;99951.44;;;15.21;66.28
64388;BME280;50709;52.648;4.764;2023-03-23T01:46:07;99946.56;;;15.09;66.07
64388;BME280;50709;52.648;4.764;2023-03-23T01:48:39;99940.88;;;15.50;65.53
64388;BME280;50709;52.648;4.764;2023-03-23T01:51:28;99940.34;;;15.10;66.57
64388;BME280;50709;52.648;4.764;2023-03-23T01:54:17;99929.22;;;15.30;66.68
64388;BME280;50709;52.648;4.764;2023-03-23T01:57:05;99925.13;;;15.21;66.88
64388;BME280;50709;52.648;4.764;2023-03-23T01:59:36;99915.03;;;15.07;67.12
64388;BME280;50709;52.648;4.764;2023-03-23T02:02:08;99928.00;;;15.13;66.61
64388;BME280;50709;52.648;4.764;2023-03-23T02:05:01;99910.03;;;14.98;66.78
64388;BME280;50709;52.648;4.764;2023-03-23T02:07:32;99904.50;;;15.07;66.12
64388;BME280;50709;52.648;4.764;2023-03-23T02:10:32;99929.28;;;15.00;66.04
64388;BME280;50709;52.648;4.764;2023-03-23T02:13:00;99907.66;;;14.90;67.30
64388;BME280;50709;52.648;4.764;2023-03-23T02:18:35;99943.88;;;15.10;67.24
64388;BME280;50709;52.648;4.764;2023-03-23T02:24:34;99925.97;;;15.22;67.28
64388;BME280;50709;52.648;4.764;2023-03-23T02:27:56;99913.81;;;14.89;68.30
64388;BME280;50709;52.648;4.764;2023-03-23T02:31:05;99923.03;;;14.74;67.87
64388;BME280;50709;52.648;4.764;2023-03-23T02:34:25;99929.19;;;14.73;68.61
64388;BME280;50709;52.648;4.764;2023-03-23T02:39:40;99927.06;;;14.86;69.07
64388;BME280;50709;52.648;4.764;2023-03-23T02:42:16;99911.22;;;14.28;69.36
64388;BME280;50709;52.648;4.764;2023-03-23T02:45:19;99915.81;;;14.51;69.24
64388;BME280;50709;52.648;4.764;2023-03-23T02:48:10;99910.47;;;14.84;68.74
64388;BME280;50709;52.648;4.764;2023-03-23T02:51:18;99923.88;;;14.75;69.63
64388;BME280;50709;52.648;4.764;2023-03-23T02:53:53;99919.72;;;14.68;69.08
64388;BME280;50709;52.648;4.764;2023-03-23T02:56:28;99910.25;;;14.62;68.63
64388;BME280;50709;52.648;4.764;2023-03-23T02:58:56;99925.06;;;14.94;68.23
64388;BME280;50709;52.648;4.764;2023-03-23T03:02:01;99919.44;;;14.47;69.07
64388;BME280;50709;52.648;4.764;2023-03-23T03:11:04;99923.91;;;14.43;70.08
64388;BME280;50709;52.648;4.764;2023-03-23T03:16:45;99930.69;;;14.51;69.26
64388;BME280;50709;52.648;4.764;2023-03-23T03:19:54;99924.84;;;14.09;70.75
64388;BME280;50709;52.648;4.764;2023-03-23T03:22:24;99942.59;;;14.33;70.83
64388;BME280;50709;52.648;4.764;2023-03-23T03:25:16;99928.41;;;14.38;70.98
64388;BME280;50709;52.648;4.764;2023-03-23T03:28:04;99929.41;;;14.34;70.40
64388;BME280;50709;52.648;4.764;2023-03-23T03:30:38;99931.16;;;14.67;69.51
64388;BME280;50709;52.648;4.764;2023-03-23T03:33:28;99936.81;;;14.20;70.71
64388;BME280;50709;52.648;4.764;2023-03-23T03:35:59;99919.72;;;14.68;69.02
64388;BME280;50709;52.648;4.764;2023-03-23T03:38:48;99924.72;;;14.45;69.75
64388;BME280;50709;52.648;4.764;2023-03-23T03:41:39;99906.66;;;14.33;68.46
64388;BME280;50709;52.648;4.764;2023-03-23T03:44:27;99912.44;;;14.46;69.39
64388;BME280;50709;52.648;4.764;2023-03-23T03:47:02;99934.75;;;14.62;68.62
64388;BME280;50709;52.648;4.764;2023-03-23T03:49:54;99922.38;;;14.36;68.73
64388;BME280;50709;52.648;4.764;2023-03-23T03:52:42;99931.16;;;14.67;68.72
64388;BME280;50709;52.648;4.764;2023-03-23T03:55:11;99950.97;;;14.47;69.76
64388;BME280;50709;52.648;4.764;2023-03-23T03:57:45;99948.78;;;14.61;68.84
64388;BME280;50709;52.648;4.764;2023-03-23T04:00:11;99928.31;;;14.43;68.72
64388;BME280;50709;52.648;4.764;2023-03-23T04:02:47;99931.13;;;14.35;68.29
64388;BME280;50709;52.648;4.764;2023-03-23T04:05:17;99933.44;;;14.77;68.14
64388;BME280;50709;52.648;4.764;2023-03-23T04:07:50;99892.16;;;14.21;67.31
64388;BME280;50709;52.648;4.764;2023-03-23T04:10:17;99933.06;;;14.28;67.93
64388;BME280;50709;52.648;4.764;2023-03-23T04:13:02;99939.13;;;14.32;67.88
64388;BME280;50709;52.648;4.764;2023-03-23T04:15:49;99946.16;;;14.30;68.37
64388;BME280;50709;52.648;4.764;2023-03-23T04:18:16;99947.78;;;14.67;67.49
64388;BME280;50709;52.648;4.764;2023-03-23T04:20:44;99953.84;;;14.69;67.96
64388;BME280;50709;52.648;4.764;2023-03-23T04:23:13;99953.28;;;14.58;67.91
64388;BME280;50709;52.648;4.764;2023-03-23T04:26:00;99947.06;;;14.29;67.43
64388;BME280;50709;52.648;4.764;2023-03-23T04:28:25;99966.56;;;14.52;67.92
64388;BME280;50709;52.648;4.764;2023-03-23T04:30:53;99968.75;;;14.36;67.83
64388;BME280;50709;52.648;4.764;2023-03-23T04:33:23;99970.66;;;14.30;68.53
64388;BME280;50709;52.648;4.764;2023-03-23T04:36:10;99967.47;;;13.86;67.61
64388;BME280;50709;52.648;4.764;2023-03-23T04:38:56;99971.22;;;14.42;67.53
64388;BME280;50709;52.648;4.764;2023-03-23T04:42:01;99975.84;;;13.99;67.93
64388;BME280;50709;52.648;4.764;2023-03-23T04:44:27;99974.13;;;13.63;68.69
64388;BME280;50709;52.648;4.764;2023-03-23T04:46:53;99990.16;;;14.22;68.09
64388;BME280;50709;52.648;4.764;2023-03-23T04:49:20;99991.88;;;14.23;69.06
64388;BME280;50709;52.648;4.764;2023-03-23T04:51:47;99989.72;;;14.04;68.20
64388;BME280;50709;52.648;4.764;2023-03-23T04:54:13;99979.88;;;13.79;68.94
64388;BME280;50709;52.648;4.764;2023-03-23T04:56:39;99993.31;;;14.02;69.06
64388;BME280;50709;52.648;4.764;2023-03-23T04:59:07;100002.50;;;14.18;68.78
64388;BME280;50709;52.648;4.764;2023-03-23T05:01:33;100006.44;;;14.02;68.73
64388;BME280;50709;52.648;4.764;2023-03-23T05:04:01;99990.91;;;14.27;68.62
64388;BME280;50709;52.648;4.764;2023-03-23T05:06:30;100001.72;;;14.15;68.67
64388;BME280;50709;52.648;4.764;2023-03-23T05:08:55;99994.19;;;14.35;69.06
64388;BME280;50709;52.648;4.764;2023-03-23T05:11:21;99994.91;;;14.40;67.95
64388;BME280;50709;52.648;4.764;2023-03-23T05:14:08;99994.75;;;14.13;67.54
64388;BME280;50709;52.648;4.764;2023-03-23T05:16:35;99995.72;;;14.42;68.43
64388;BME280;50709;52.648;4.764;2023-03-23T05:19:21;100003.19;;;14.25;68.99
64388;BME280;50709;52.648;4.764;2023-03-23T05:22:06;99996.16;;;13.92;68.40
64388;BME280;50709;52.648;4.764;2023-03-23T05:24:52;100007.13;;;14.41;67.98
64388;BME280;50709;52.648;4.764;2023-03-23T05:27:39;100029.34;;;14.29;68.24
64388;BME280;50709;52.648;4.764;2023-03-23T05:30:08;100022.69;;;14.16;68.58
64388;BME280;50709;52.648;4.764;2023-03-23T05:32:33;100020.06;;;14.16;67.71
64388;BME280;50709;52.648;4.764;2023-03-23T05:34:59;100001.41;;;14.27;68.23
64388;BME280;50709;52.648;4.764;2023-03-23T05:37:27;99981.84;;;14.04;68.09
64388;BME280;50709;52.648;4.764;2023-03-23T05:39:57;100007.28;;;14.02;68.38
64388;BME280;50709;52.648;4.764;2023-03-23T05:42:27;100023.19;;;13.96;68.21
64388;BME280;50709;52.648;4.764;2023-03-23T05:44:53;100031.44;;;13.82;69.58
64388;BME280;50709;52.648;4.764;2023-03-23T05:47:21;100029.41;;;14.28;68.51
64388;BME280;50709;52.648;4.764;2023-03-23T05:49:46;100022.44;;;13.91;67.52
64388;BME280;50709;52.648;4.764;2023-03-23T05:52:35;100015.38;;;13.94;67.95
64388;BME280;50709;52.648;4.764;2023-03-23T05:55:43;100036.94;;;14.06;67.97
64388;BME280;50709;52.648;4.764;2023-03-23T05:58:10;100038.53;;;13.39;67.52
64388;BME280;50709;52.648;4.764;2023-03-23T06:00:55;100046.25;;;13.83;67.59
64388;BME280;50709;52.648;4.764;2023-03-23T06:03:21;100066.44;;;13.81;68.85
64388;BME280;50709;52.648;4.764;2023-03-23T06:06:09;100055.25;;;13.73;69.25
64388;BME280;50709;52.648;4.764;2023-03-23T06:08:37;100058.09;;;14.01;69.42
64388;BME280;50709;52.648;4.764;2023-03-23T06:11:23;100075.69;;;13.96;67.91
64388;BME280;50709;52.648;4.764;2023-03-23T06:13:50;100071.50;;;13.89;68.33
64388;BME280;50709;52.648;4.764;2023-03-23T06:16:15;100067.63;;;13.68;68.20
64388;BME280;50709;52.648;4.764;2023-03-23T06:19:01;100036.16;;;13.66;68.23
64388;BME280;50709;52.648;4.764;2023-03-23T06:21:32;100028.81;;;13.80;67.59
64388;BME280;50709;52.648;4.764;2023-03-23T06:23:58;100084.97;;;13.73;67.46
64388;BME280;50709;52.648;4.764;2023-03-23T06:26:28;100033.44;;;13.71;67.66
64388;BME280;50709;52.648;4.764;2023-03-23T06:28:56;100081.22;;;14.21;67.46
64388;BME280;50709;52.648;4.764;2023-03-23T06:31:23;100083.41;;;14.38;68.37
64388;BME280;50709;52.648;4.764;2023-03-23T06:33:49;100091.72;;;14.56;66.54
64388;BME280;50709;52.648;4.764;2023-03-23T06:36:15;100091.94;;;15.12;64.82
64388;BME280;50709;52.648;4.764;2023-03-23T06:38:41;100098.50;;;14.97;64.87
64388;BME280;50709;52.648;4.764;2023-03-23T06:41:07;100090.19;;;15.43;63.66
64388;BME280;50709;52.648;4.764;2023-03-23T06:43:33;100105.69;;;16.10;63.25
64388;BME280;50709;52.648;4.764;2023-03-23T06:46:01;100102.78;;;15.61;62.91
64388;BME280;50709;52.648;4.764;2023-03-23T06:48:26;100111.44;;;15.65;64.18
64388;BME280;50709;52.648;4.764;2023-03-23T06:50:52;100099.44;;;15.56;64.25
64388;BME280;50709;52.648;4.764;2023-03-23T06:53:18;100116.41;;;14.85;65.73
64388;BME280;50709;52.648;4.764;2023-03-23T06:55:45;100081.88;;;14.97;65.13
64388;BME280;50709;52.648;4.764;2023-03-23T06:58:12;100104.16;;;15.45;64.00
64388;BME280;50709;52.648;4.764;2023-03-23T07:00:37;100073.31;;;15.20;64.53
64388;BME280;50709;52.648;4.764;2023-03-23T07:03:03;100097.09;;;15.75;64.44
64388;BME280;50709;52.648;4.764;2023-03-23T07:05:29;100103.81;;;15.86;61.95
64388;BME280;50709;52.648;4.764;2023-03-23T07:07:55;100114.34;;;15.86;63.24
64388;BME280;50709;52.648;4.764;2023-03-23T07:10:21;100100.13;;;15.63;63.53
64388;BME280;50709;52.648;4.764;2023-03-23T07:12:47;100113.44;;;15.87;64.48
64388;BME280;50709;52.648;4.764;2023-03-23T07:15:13;100111.13;;;15.76;64.71
64388;BME280;50709;52.648;4.764;2023-03-23T07:17:58;100093.09;;;15.92;63.03
64388;BME280;50709;52.648;4.764;2023-03-23T07:20:24;100113.34;;;15.90;63.53
64388;BME280;50709;52.648;4.764;2023-03-23T07:22:49;100116.91;;;15.59;63.44
64388;BME280;50709;52.648;4.764;2023-03-23T07:25:16;100106.03;;;16.00;63.73
64388;BME280;50709;52.648;4.764;2023-03-23T07:27:44;100131.69;;;15.93;64.07
64388;BME280;50709;52.648;4.764;2023-03-23T07:30:10;100126.28;;;16.24;62.31
64388;BME280;50709;52.648;4.764;2023-03-23T07:32:35;100116.13;;;15.85;61.18
64388;BME280;50709;52.648;4.764;2023-03-23T07:35:01;100117.13;;;15.81;61.04
64388;BME280;50709;52.648;4.764;2023-03-23T07:37:26;100102.75;;;16.97;60.80
64388;BME280;50709;52.648;4.764;2023-03-23T07:39:53;100126.75;;;16.89;59.53
64388;BME280;50709;52.648;4.764;2023-03-23T07:42:19;100134.63;;;16.64;60.26
64388;BME280;50709;52.648;4.764;2023-03-23T07:44:44;100122.53;;;16.58;61.81
64388;BME280;50709;52.648;4.764;2023-03-23T07:47:10;100137.25;;;16.91;58.16
64388;BME280;50709;52.648;4.764;2023-03-23T07:49:35;100118.72;;;16.92;57.45
64388;BME280;50709;52.648;4.764;2023-03-23T07:52:00;100122.50;;;16.33;59.51
64388;BME280;50709;52.648;4.764;2023-03-23T07:54:27;100146.88;;;16.40;60.59
64388;BME280;50709;52.648;4.764;2023-03-23T07:56:53;100141.56;;;16.67;60.17
64388;BME280;50709;52.648;4.764;2023-03-23T07:59:22;100135.88;;;17.53;57.48
64388;BME280;50709;52.648;4.764;2023-03-23T08:01:47;100123.03;;;17.90;57.03
64388;BME280;50709;52.648;4.764;2023-03-23T08:04:53;100154.22;;;17.09;59.06
64388;BME280;50709;52.648;4.764;2023-03-23T08:07:19;100137.38;;;17.13;59.30
64388;BME280;50709;52.648;4.764;2023-03-23T08:09:46;100138.13;;;17.64;57.37
64388;BME280;50709;52.648;4.764;2023-03-23T08:12:13;100144.34;;;17.14;56.79
64388;BME280;50709;52.648;4.764;2023-03-23T08:14:38;100143.16;;;17.23;57.33
64388;BME280;50709;52.648;4.764;2023-03-23T08:17:05;100145.97;;;17.88;56.97
64388;BME280;50709;52.648;4.764;2023-03-23T08:19:30;100156.22;;;18.19;56.98
64388;BME280;50709;52.648;4.764;2023-03-23T08:22:01;100159.03;;;17.45;57.50
64388;BME280;50709;52.648;4.764;2023-03-23T08:24:27;100165.78;;;17.54;57.77
64388;BME280;50709;52.648;4.764;2023-03-23T08:27:12;100173.00;;;17.25;58.26
64388;BME280;50709;52.648;4.764;2023-03-23T08:29:38;100167.94;;;17.42;59.12
64388;BME280;50709;52.648;4.764;2023-03-23T08:32:04;100166.59;;;16.80;58.94
64388;BME280;50709;52.648;4.764;2023-03-23T08:34:30;100163.66;;;17.40;57.09
64388;BME280;50709;52.648;4.764;2023-03-23T08:36:56;100172.47;;;16.90;59.91
64388;BME280;50709;52.648;4.764;2023-03-23T08:39:21;100177.41;;;16.99;58.01
64388;BME280;50709;52.648;4.764;2023-03-23T08:41:49;100160.03;;;16.67;60.79
64388;BME280;50709;52.648;4.764;2023-03-23T08:44:14;100175.28;;;17.34;56.48
64388;BME280;50709;52.648;4.764;2023-03-23T08:46:41;100186.63;;;16.86;59.09
64388;BME280;50709;52.648;4.764;2023-03-23T08:49:07;100160.00;;;17.42;57.37
64388;BME280;50709;52.648;4.764;2023-03-23T08:51:33;100166.56;;;17.32;57.15
64388;BME280;50709;52.648;4.764;2023-03-23T08:53:58;100180.22;;;17.67;58.73
64388;BME280;50709;52.648;4.764;2023-03-23T08:56:24;100180.78;;;17.52;57.55
64388;BME280;50709;52.648;4.764;2023-03-23T08:58:50;100171.03;;;17.30;59.38
64388;BME280;50709;52.648;4.764;2023-03-23T09:01:15;100177.69;;;18.11;56.03
64388;BME280;50709;52.648;4.764;2023-03-23T09:03:41;100171.97;;;17.76;57.09
64388;BME280;50709;52.648;4.764;2023-03-23T09:06:08;100183.03;;;17.86;56.80
64388;BME280;50709;52.648;4.764;2023-03-23T09:08:37;100182.94;;;17.65;57.34
64388;BME280;50709;52.648;4.764;2023-03-23T09:11:03;100135.75;;;17.09;57.08
64388;BME280;50709;52.648;4.764;2023-03-23T09:13:29;100175.06;;;17.64;58.35
64388;BME280;50709;52.648;4.764;2023-03-23T09:15:55;100181.81;;;16.98;58.35
64388;BME280;50709;52.648;4.764;2023-03-23T09:18:20;100187.69;;;17.32;57.76
64388;BME280;50709;52.648;4.764;2023-03-23T09:20:49;100157.72;;;16.82;58.13
64388;BME280;50709;52.648;4.764;2023-03-23T09:23:15;100195.09;;;17.22;59.27
64388;BME280;50709;52.648;4.764;2023-03-23T09:25:40;100182.84;;;17.91;56.18
64388;BME280;50709;52.648;4.764;2023-03-23T09:28:06;100190.84;;;17.17;56.36
64388;BME280;50709;52.648;4.764;2023-03-23T09:30:33;100186.88;;;17.30;59.21
64388;BME280;50709;52.648;4.764;2023-03-23T09:33:01;100187.41;;;17.87;57.37
64388;BME280;50709;52.648;4.764;2023-03-23T09:35:27;100194.75;;;18.03;56.95
64388;BME280;50709;52.648;4.764;2023-03-23T09:37:53;100179.97;;;17.26;57.87
64388;BME280;50709;52.648;4.764;2023-03-23T09:40:22;100191.28;;;16.79;56.84
64388;BME280;50709;52.648;4.764;2023-03-23T09:48:25;100211.19;;;16.88;58.86
64388;BME280;50709;52.648;4.764;2023-03-23T09:53:38;100217.13;;;16.68;59.37
64388;BME280;50709;52.648;4.764;2023-03-23T09:56:11;100211.94;;;16.38;59.89
64388;BME280;50709;52.648;4.764;2023-03-23T09:58:53;100225.50;;;16.80;60.97
64388;BME280;50709;52.648;4.764;2023-03-23T10:01:28;100213.69;;;16.92;60.90
64388;BME280;50709;52.648;4.764;2023-03-23T10:04:10;100228.25;;;16.49;60.97
64388;BME280;50709;52.648;4.764;2023-03-23T10:06:39;100208.97;;;16.75;62.55
64388;BME280;50709;52.648;4.764;2023-03-23T10:09:05;100221.50;;;17.21;60.76
64388;BME280;50709;52.648;4.764;2023-03-23T10:11:40;100224.31;;;17.16;60.61
64388;BME280;50709;52.648;4.764;2023-03-23T10:14:30;100223.78;;;17.06;59.38
64388;BME280;50709;52.648;4.764;2023-03-23T10:17:24;100234.66;;;17.22;59.50
64388;BME280;50709;52.648;4.764;2023-03-23T10:25:59;100232.59;;;16.78;59.24
64388;BME280;50709;52.648;4.764;2023-03-23T10:28:37;100239.28;;;17.15;59.52
64388;BME280;50709;52.648;4.764;2023-03-23T10:31:04;100237.25;;;16.70;58.94
64388;BME280;50709;52.648;4.764;2023-03-23T10:33:40;100223.88;;;16.76;58.56
64388;BME280;50709;52.648;4.764;2023-03-23T10:36:16;100235.78;;;16.90;57.80
64388;BME280;50709;52.648;4.764;2023-03-23T10:39:13;100240.28;;;17.37;57.72
64388;BME280;50709;52.648;4.764;2023-03-23T10:41:42;100241.34;;;17.07;58.93
64388;BME280;50709;52.648;4.764;2023-03-23T10:44:20;100211.50;;;16.52;58.18
64388;BME280;50709;52.648;4.764;2023-03-23T10:47:05;100255.50;;;16.50;59.39
64388;BME280;50709;52.648;4.764;2023-03-23T10:49:50;100246.81;;;17.01;59.33
64388;BME280;50709;52.648;4.764;2023-03-23T10:52:33;100252.16;;;16.71;59.26
64388;BME280;50709;52.648;4.764;2023-03-23T10:57:33;100242.09;;;16.56;58.38
64388;BME280;50709;52.648;4.764;2023-03-23T11:02:26;100235.50;;;16.42;59.00
64388;BME280;50709;52.648;4.764;2023-03-23T11:05:02;100258.84;;;16.55;57.86
64388;BME280;50709;52.648;4.764;2023-03-23T11:07:33;100271.03;;;16.57;59.74
64388;BME280;50709;52.648;4.764;2023-03-23T11:10:21;100278.72;;;16.65;60.11
64388;BME280;50709;52.648;4.764;2023-03-23T11:12:47;100262.00;;;16.66;57.99
64388;BME280;50709;52.648;4.764;2023-03-23T11:15:25;100259.88;;;16.22;59.08
64388;BME280;50709;52.648;4.764;2023-03-23T11:17:55;100273.00;;;17.07;60.24
64388;BME280;50709;52.648;4.764;2023-03-23T11:20:22;100273.50;;;16.92;58.87
64388;BME280;50709;52.648;4.764;2023-03-23T11:22:48;100271.22;;;16.79;57.23
64388;BME280;50709;52.648;4.764;2023-03-23T11:25:14;100276.47;;;17.08;58.65
64388;BME280;50709;52.648;4.764;2023-03-23T11:27:40;100272.47;;;16.96;58.52
64388;BME280;50709;52.648;4.764;2023-03-23T11:30:18;100280.44;;;16.94;59.07
64388;BME280;50709;52.648;4.764;2023-03-23T11:32:46;100258.38;;;17.47;58.31
64388;BME280;50709;52.648;4.764;2023-03-23T11:35:18;100266.41;;;17.70;56.59
64388;BME280;50709;52.648;4.764;2023-03-23T11:37:51;100264.00;;;17.87;58.59
64388;BME280;50709;52.648;4.764;2023-03-23T11:40:26;100260.03;;;17.99;58.26
64388;BME280;50709;52.648;4.764;2023-03-23T11:45:38;100270.81;;;18.16;56.38
64388;BME280;50709;52.648;4.764;2023-03-23T11:48:12;100269.06;;;18.17;56.63
64388;BME280;50709;52.648;4.764;2023-03-23T11:50:49;100277.91;;;18.82;58.01
64388;BME280;50709;52.648;4.764;2023-03-23T11:56:27;100273.69;;;19.62;58.17
64388;BME280;50709;52.648;4.764;2023-03-23T11:58:55;100254.31;;;18.56;54.26
64388;BME280;50709;52.648;4.764;2023-03-23T12:10:25;100260.19;;;19.07;56.41
64388;BME280;50709;52.648;4.764;2023-03-23T12:13:20;100261.63;;;19.55;56.53
64388;BME280;50709;52.648;4.764;2023-03-23T12:16:32;100270.72;;;19.29;55.96
64388;BME280;50709;52.648;4.764;2023-03-23T12:22:04;100263.47;;;20.31;55.82
64388;BME280;50709;52.648;4.764;2023-03-23T12:45:20;100239.03;;;18.85;56.27
64388;BME280;50709;52.648;4.764;2023-03-23T12:48:04;100252.31;;;19.26;54.95
64388;BME280;50709;52.648;4.764;2023-03-23T12:50:38;100259.59;;;19.41;54.64
64388;BME280;50709;52.648;4.764;2023-03-23T12:53:33;100266.72;;;19.60;55.19
64388;BME280;50709;52.648;4.764;2023-03-23T12:58:44;100263.03;;;19.64;56.03
64388;BME280;50709;52.648;4.764;2023-03-23T13:01:18;100276.13;;;19.26;55.96
64388;BME280;50709;52.648;4.764;2023-03-23T13:03:57;100210.75;;;19.28;53.69
64388;BME280;50709;52.648;4.764;2023-03-23T13:06:46;100260.59;;;19.39;55.55
64388;BME280;50709;52.648;4.764;2023-03-23T13:12:15;100253.81;;;20.11;56.09
64388;BME280;50709;52.648;4.764;2023-03-23T13:15:02;100254.47;;;18.73;51.95
64388;BME280;50709;52.648;4.764;2023-03-23T13:18:02;100280.50;;;19.47;54.54
64388;BME280;50709;52.648;4.764;2023-03-23T13:23:13;100267.50;;;19.82;54.27
64388;BME280;50709;52.648;4.764;2023-03-23T13:25:56;100272.25;;;19.74;55.62
64388;BME280;50709;52.648;4.764;2023-03-23T13:28:30;100256.84;;;19.84;56.25
64388;BME280;50709;52.648;4.764;2023-03-23T13:31:01;100272.38;;;19.52;51.83
64388;BME280;50709;52.648;4.764;2023-03-23T13:33:32;100278.25;;;19.59;57.81
64388;BME280;50709;52.648;4.764;2023-03-23T13:36:13;100250.91;;;19.98;54.11
64388;BME280;50709;52.648;4.764;2023-03-23T13:38:46;100268.22;;;20.24;52.66
64388;BME280;50709;52.648;4.764;2023-03-23T13:41:15;100272.25;;;19.74;52.22
64388;BME280;50709;52.648;4.764;2023-03-23T13:43:42;100270.97;;;20.04;55.84
64388;BME280;50709;52.648;4.764;2023-03-23T13:48:45;100256.75;;;20.43;55.52
64388;BME280;50709;52.648;4.764;2023-03-23T13:51:34;100273.69;;;20.21;56.64
64388;BME280;50709;52.648;4.764;2023-03-23T13:56:55;100280.94;;;19.78;55.67
64388;BME280;50709;52.648;4.764;2023-03-23T13:59:30;100270.31;;;19.98;55.37
64388;BME280;50709;52.648;4.764;2023-03-23T14:02:28;100272.81;;;19.62;54.96
64388;BME280;50709;52.648;4.764;2023-03-23T14:04:44;100262.66;;;19.32;57.20
64388;BME280;50709;52.648;4.764;2023-03-23T14:07:15;100240.09;;;19.23;53.93
64388;BME280;50709;52.648;4.764;2023-03-23T14:09:42;100259.19;;;19.09;55.93
64388;BME280;50709;52.648;4.764;2023-03-23T14:12:26;100223.47;;;19.20;54.14
64388;BME280;50709;52.648;4.764;2023-03-23T14:14:58;100236.75;;;19.78;56.02
64388;BME280;50709;52.648;4.764;2023-03-23T14:17:32;100254.66;;;19.73;54.52
64388;BME280;50709;52.648;4.764;2023-03-23T14:19:59;100253.56;;;19.38;58.45
64388;BME280;50709;52.648;4.764;2023-03-23T14:22:32;100251.47;;;18.82;54.44
64388;BME280;50709;52.648;4.764;2023-03-23T14:25:02;100215.09;;;18.67;54.40
64388;BME280;50709;52.648;4.764;2023-03-23T14:27:34;100255.56;;;18.47;53.86
64388;BME280;50709;52.648;4.764;2023-03-23T14:30:03;100227.66;;;18.82;56.71
64388;BME280;50709;52.648;4.764;2023-03-23T14:32:31;100218.34;;;19.75;55.76
64388;BME280;50709;52.648;4.764;2023-03-23T14:34:58;100220.31;;;19.51;56.40
64388;BME280;50709;52.648;4.764;2023-03-23T14:37:24;100233.78;;;19.05;56.01
64388;BME280;50709;52.648;4.764;2023-03-23T14:39:54;100187.69;;;18.03;56.68
64388;BME280;50709;52.648;4.764;2023-03-23T14:42:29;100218.63;;;18.66;54.68
64388;BME280;50709;52.648;4.764;2023-03-23T14:44:55;100225.94;;;19.43;57.38
64388;BME280;50709;52.648;4.764;2023-03-23T14:47:32;100223.97;;;19.48;56.26
64388;BME280;50709;52.648;4.764;2023-03-23T14:50:00;100212.22;;;18.94;54.75
64388;BME280;50709;52.648;4.764;2023-03-23T14:52:29;100223.59;;;19.37;55.14
64388;BME280;50709;52.648;4.764;2023-03-23T14:55:17;100207.31;;;19.65;54.36
64388;BME280;50709;52.648;4.764;2023-03-23T14:57:48;100169.31;;;18.65;57.14
64388;BME280;50709;52.648;4.764;2023-03-23T15:00:16;100177.81;;;19.14;54.74
64388;BME280;50709;52.648;4.764;2023-03-23T15:02:47;100190.75;;;18.79;54.36